sensor_id;sensor_type;location;lat;lon;timestamp;pressure;altitude;pressure_sealevel;temperature;humidity
23176;BME280;19910;42.652;23.332;2023-03-19T00:01:33;95185.72;;;1.14;80.36
23176;BME280;19910;42.652;23.332;2023-03-19T00:04:00;95182.75;;;1.10;81.43
23176;BME280;19910;42.652;23.332;2023-03-19T00:06:27;95183.38;;;1.17;81.44
23176;BME280;19910;42.652;23.332;2023-03-19T00:08:54;95176.91;;;1.08;81.10
23176;BME280;19910;42.652;23.332;2023-03-19T00:11:22;95179.00;;;1.06;82.17
23176;BME280;19910;42.652;23.332;2023-03-19T00:13:48;95177.84;;;0.97;83.28
23176;BME280;19910;42.652;23.332;2023-03-19T00:16:15;95172.63;;;1.07;82.77
23176;BME280;19910;42.652;23.332;2023-03-19T00:18:42;95181.69;;;1.06;82.16
23176;BME280;19910;42.652;23.332;2023-03-19T00:21:09;95175.84;;;1.09;82.54
23176;BME280;19910;42.652;23.332;2023-03-19T00:23:36;95168.09;;;1.13;81.88
23176;BME280;19910;42.652;23.332;2023-03-19T00:26:03;95168.34;;;1.11;82.10
23176;BME280;19910;42.652;23.332;2023-03-19T00:28:31;95157.38;;;1.02;82.36
23176;BME280;19910;42.652;23.332;2023-03-19T00:31:06;95158.41;;;1.01;82.09
23176;BME280;19910;42.652;23.332;2023-03-19T00:33:32;95160.75;;;0.93;82.19
23176;BME280;19910;42.652;23.332;2023-03-19T00:35:59;95157.53;;;0.91;83.82
23176;BME280;19910;42.652;23.332;2023-03-19T00:38:26;95156.50;;;0.97;83.03
23176;BME280;19910;42.652;23.332;2023-03-19T00:40:53;95157.53;;;0.91;82.60
23176;BME280;19910;42.652;23.332;2023-03-19T00:43:20;95152.94;;;0.81;83.15
23176;BME280;19910;42.652;23.332;2023-03-19T00:45:48;95150.78;;;0.83;83.17
23176;BME280;19910;42.652;23.332;2023-03-19T00:48:15;95141.66;;;0.74;83.41
23176;BME280;19910;42.652;23.332;2023-03-19T00:50:42;95148.13;;;0.83;83.10
23176;BME280;19910;42.652;23.332;2023-03-19T00:53:08;95141.16;;;0.77;83.40
23176;BME280;19910;42.652;23.332;2023-03-19T00:55:35;95128.63;;;0.78;83.71
23176;BME280;19910;42.652;23.332;2023-03-19T00:58:02;95152.97;;;0.86;83.68
23176;BME280;19910;42.652;23.332;2023-03-19T01:00:31;95143.50;;;0.74;83.74
23176;BME280;19910;42.652;23.332;2023-03-19T01:02:59;95138.75;;;0.76;83.72
23176;BME280;19910;42.652;23.332;2023-03-19T01:05:27;95132.78;;;0.68;83.00
23176;BME280;19910;42.652;23.332;2023-03-19T01:07:53;95129.28;;;0.63;83.11
23176;BME280;19910;42.652;23.332;2023-03-19T01:10:21;95135.94;;;0.60;83.61
23176;BME280;19910;42.652;23.332;2023-03-19T01:12:49;95140.25;;;0.66;82.87
23176;BME280;19910;42.652;23.332;2023-03-19T01:15:16;95137.94;;;0.75;82.03
23176;BME280;19910;42.652;23.332;2023-03-19T01:17:43;95133.31;;;0.65;82.78
23176;BME280;19910;42.652;23.332;2023-03-19T01:20:11;95131.59;;;0.81;81.78
23176;BME280;19910;42.652;23.332;2023-03-19T01:22:39;95132.22;;;0.61;82.48
23176;BME280;19910;42.652;23.332;2023-03-19T01:25:08;95121.00;;;0.59;83.47
23176;BME280;19910;42.652;23.332;2023-03-19T01:27:35;95121.84;;;0.65;83.14
23176;BME280;19910;42.652;23.332;2023-03-19T01:30:02;95124.78;;;0.63;81.53
23176;BME280;19910;42.652;23.332;2023-03-19T01:32:29;95123.56;;;0.49;82.50
23176;BME280;19910;42.652;23.332;2023-03-19T01:34:56;95126.25;;;0.49;83.38
23176;BME280;19910;42.652;23.332;2023-03-19T01:37:24;95126.03;;;0.56;82.70
23176;BME280;19910;42.652;23.332;2023-03-19T01:39:51;95127.38;;;0.58;82.59
23176;BME280;19910;42.652;23.332;2023-03-19T01:42:18;95130.03;;;0.53;83.50
23176;BME280;19910;42.652;23.332;2023-03-19T01:44:45;95126.88;;;0.61;83.26
23176;BME280;19910;42.652;23.332;2023-03-19T01:47:15;95125.34;;;0.70;82.96
23176;BME280;19910;42.652;23.332;2023-03-19T01:49:45;95126.16;;;0.71;83.88
23176;BME280;19910;42.652;23.332;2023-03-19T01:52:14;95125.47;;;0.81;85.18
23176;BME280;19910;42.652;23.332;2023-03-19T01:54:43;95131.06;;;0.84;85.47
23176;BME280;19910;42.652;23.332;2023-03-19T01:57:11;95133.97;;;0.83;84.48
23176;BME280;19910;42.652;23.332;2023-03-19T01:59:41;95132.91;;;0.79;83.69
23176;BME280;19910;42.652;23.332;2023-03-19T02:02:12;95132.66;;;0.80;83.76
23176;BME280;19910;42.652;23.332;2023-03-19T02:04:43;95141.34;;;0.70;83.34
23176;BME280;19910;42.652;23.332;2023-03-19T02:07:12;95130.81;;;0.54;83.84
23176;BME280;19910;42.652;23.332;2023-03-19T02:09:41;95133.22;;;0.55;84.62
23176;BME280;19910;42.652;23.332;2023-03-19T02:12:09;95130.28;;;0.57;85.20
23176;BME280;19910;42.652;23.332;2023-03-19T02:14:36;95136.25;;;0.64;84.96
23176;BME280;19910;42.652;23.332;2023-03-19T02:17:03;95131.72;;;0.64;84.51
23176;BME280;19910;42.652;23.332;2023-03-19T02:19:47;95129.28;;;0.63;83.79
23176;BME280;19910;42.652;23.332;2023-03-19T02:22:18;95124.69;;;0.53;83.95
23176;BME280;19910;42.652;23.332;2023-03-19T02:24:52;95123.97;;;0.36;83.83
23176;BME280;19910;42.652;23.332;2023-03-19T02:27:21;95130.91;;;0.37;83.80
23176;BME280;19910;42.652;23.332;2023-03-19T02:29:48;95132.13;;;0.24;84.71
23176;BME280;19910;42.652;23.332;2023-03-19T02:32:14;95129.22;;;0.26;84.60
23176;BME280;19910;42.652;23.332;2023-03-19T02:34:42;95129.22;;;0.26;84.96
23176;BME280;19910;42.652;23.332;2023-03-19T02:37:13;95138.81;;;0.27;85.08
23176;BME280;19910;42.652;23.332;2023-03-19T02:39:50;95129.25;;;0.31;85.41
23176;BME280;19910;42.652;23.332;2023-03-19T02:42:22;95147.47;;;0.39;84.54
23176;BME280;19910;42.652;23.332;2023-03-19T02:44:50;95142.56;;;0.31;84.18
23176;BME280;19910;42.652;23.332;2023-03-19T02:47:17;95142.16;;;0.44;84.64
23176;BME280;19910;42.652;23.332;2023-03-19T02:49:44;95138.66;;;0.39;85.20
23176;BME280;19910;42.652;23.332;2023-03-19T02:52:11;95143.38;;;0.31;85.62
23176;BME280;19910;42.652;23.332;2023-03-19T02:54:38;95133.94;;;0.46;85.71
23176;BME280;19910;42.652;23.332;2023-03-19T02:57:05;95149.59;;;0.42;85.61
23176;BME280;19910;42.652;23.332;2023-03-19T02:59:33;95145.88;;;0.43;84.73
23176;BME280;19910;42.652;23.332;2023-03-19T03:02:00;95147.41;;;0.34;84.95
23176;BME280;19910;42.652;23.332;2023-03-19T03:04:27;95149.72;;;0.25;85.11
23176;BME280;19910;42.652;23.332;2023-03-19T03:06:53;95146.28;;;0.30;85.65
23176;BME280;19910;42.652;23.332;2023-03-19T03:09:20;95147.22;;;0.19;84.61
23176;BME280;19910;42.652;23.332;2023-03-19T03:11:48;95147.69;;;0.11;84.14
23176;BME280;19910;42.652;23.332;2023-03-19T03:14:14;95151.66;;;0.08;84.17
23176;BME280;19910;42.652;23.332;2023-03-19T03:16:43;95151.56;;;0.03;82.95
23176;BME280;19910;42.652;23.332;2023-03-19T03:19:10;95155.25;;;-0.03;83.28
23176;BME280;19910;42.652;23.332;2023-03-19T03:21:37;95159.69;;;-0.09;83.87
23176;BME280;19910;42.652;23.332;2023-03-19T03:24:04;95165.72;;;-0.18;85.42
23176;BME280;19910;42.652;23.332;2023-03-19T03:26:31;95165.88;;;-0.25;86.81
23176;BME280;19910;42.652;23.332;2023-03-19T03:28:59;95169.59;;;-0.26;87.58
23176;BME280;19910;42.652;23.332;2023-03-19T03:31:25;95163.16;;;-0.30;87.59
23176;BME280;19910;42.652;23.332;2023-03-19T03:33:54;95165.88;;;-0.25;88.16
23176;BME280;19910;42.652;23.332;2023-03-19T03:36:20;95169.19;;;-0.18;87.90
23176;BME280;19910;42.652;23.332;2023-03-19T03:38:47;95170.47;;;0.02;87.05
23176;BME280;19910;42.652;23.332;2023-03-19T03:41:14;95172.72;;;0.10;86.97
23176;BME280;19910;42.652;23.332;2023-03-19T03:43:41;95166.75;;;0.03;86.86
23176;BME280;19910;42.652;23.332;2023-03-19T03:46:08;95177.84;;;-0.06;86.09
23176;BME280;19910;42.652;23.332;2023-03-19T03:48:35;95175.19;;;-0.06;86.27
23176;BME280;19910;42.652;23.332;2023-03-19T03:51:03;95177.13;;;-0.01;85.98
23176;BME280;19910;42.652;23.332;2023-03-19T03:53:30;95181.50;;;-0.12;85.92
23176;BME280;19910;42.652;23.332;2023-03-19T03:55:56;95183.97;;;-0.05;86.95
23176;BME280;19910;42.652;23.332;2023-03-19T03:58:23;95182.25;;;0.06;87.32
23176;BME280;19910;42.652;23.332;2023-03-19T04:00:50;95190.91;;;0.18;87.14
23176;BME280;19910;42.652;23.332;2023-03-19T04:03:19;95185.16;;;0.26;87.14
23176;BME280;19910;42.652;23.332;2023-03-19T04:05:46;95177.75;;;0.33;87.20
23176;BME280;19910;42.652;23.332;2023-03-19T04:08:14;95181.47;;;0.32;86.58
23176;BME280;19910;42.652;23.332;2023-03-19T04:10:41;95172.25;;;0.18;86.50
23176;BME280;19910;42.652;23.332;2023-03-19T04:13:09;95170.22;;;0.25;85.96
23176;BME280;19910;42.652;23.332;2023-03-19T04:15:36;95173.69;;;0.04;85.76
23176;BME280;19910;42.652;23.332;2023-03-19T04:18:02;95169.38;;;-0.03;86.48
23176;BME280;19910;42.652;23.332;2023-03-19T04:20:29;95172.06;;;0.03;86.92
23176;BME280;19910;42.652;23.332;2023-03-19T04:22:56;95164.41;;;0.06;86.78
23176;BME280;19910;42.652;23.332;2023-03-19T04:25:24;95177.09;;;0.21;85.72
23176;BME280;19910;42.652;23.332;2023-03-19T04:27:51;95176.03;;;0.22;85.07
23176;BME280;19910;42.652;23.332;2023-03-19T04:30:18;95176.53;;;0.19;84.97
23176;BME280;19910;42.652;23.332;2023-03-19T04:32:45;95177.41;;;0.03;85.35
23176;BME280;19910;42.652;23.332;2023-03-19T04:35:12;95173.56;;;-0.07;85.74
23176;BME280;19910;42.652;23.332;2023-03-19T04:37:38;95185.09;;;-0.01;85.49
23176;BME280;19910;42.652;23.332;2023-03-19T04:40:06;95188.41;;;-0.11;85.79
23176;BME280;19910;42.652;23.332;2023-03-19T04:42:34;95193.59;;;-0.04;86.37
23176;BME280;19910;42.652;23.332;2023-03-19T04:45:01;95192.41;;;0.09;86.76
23176;BME280;19910;42.652;23.332;2023-03-19T04:47:28;95186.13;;;0.20;87.29
23176;BME280;19910;42.652;23.332;2023-03-19T04:49:55;95187.28;;;0.29;86.06
23176;BME280;19910;42.652;23.332;2023-03-19T04:52:22;95179.88;;;0.58;84.99
23176;BME280;19910;42.652;23.332;2023-03-19T04:54:49;95166.78;;;1.52;83.80
23176;BME280;19910;42.652;23.332;2023-03-19T04:57:15;95160.88;;;2.90;78.83
23176;BME280;19910;42.652;23.332;2023-03-19T04:59:43;95160.47;;;4.13;73.75
23176;BME280;19910;42.652;23.332;2023-03-19T05:02:11;95148.97;;;5.35;68.50
23176;BME280;19910;42.652;23.332;2023-03-19T05:04:37;95141.66;;;6.46;64.11
23176;BME280;19910;42.652;23.332;2023-03-19T05:07:04;95149.47;;;7.23;60.92
23176;BME280;19910;42.652;23.332;2023-03-19T05:09:31;95151.41;;;7.36;58.89
23176;BME280;19910;42.652;23.332;2023-03-19T05:11:58;95148.84;;;7.77;58.36
23176;BME280;19910;42.652;23.332;2023-03-19T05:14:25;95143.53;;;8.45;56.73
23176;BME280;19910;42.652;23.332;2023-03-19T05:16:53;95146.75;;;7.88;58.94
23176;BME280;19910;42.652;23.332;2023-03-19T05:19:20;95143.84;;;8.80;56.80
23176;BME280;19910;42.652;23.332;2023-03-19T05:21:47;95139.09;;;9.35;55.08
23176;BME280;19910;42.652;23.332;2023-03-19T05:24:14;95138.09;;;9.31;54.14
23176;BME280;19910;42.652;23.332;2023-03-19T05:26:41;95143.03;;;10.13;51.31
23176;BME280;19910;42.652;23.332;2023-03-19T05:29:08;95127.78;;;10.48;49.79
23176;BME280;19910;42.652;23.332;2023-03-19T05:31:36;95133.19;;;10.48;48.85
23176;BME280;19910;42.652;23.332;2023-03-19T05:34:04;95142.97;;;9.43;49.48
23176;BME280;19910;42.652;23.332;2023-03-19T05:36:31;95151.09;;;8.30;52.48
23176;BME280;19910;42.652;23.332;2023-03-19T05:38:58;95147.16;;;8.77;49.59
23176;BME280;19910;42.652;23.332;2023-03-19T05:41:26;95154.97;;;8.65;49.67
23176;BME280;19910;42.652;23.332;2023-03-19T05:43:53;95156.69;;;8.19;49.64
23176;BME280;19910;42.652;23.332;2023-03-19T05:46:20;95151.09;;;8.57;49.54
23176;BME280;19910;42.652;23.332;2023-03-19T05:48:47;95155.88;;;7.92;50.53
23176;BME280;19910;42.652;23.332;2023-03-19T05:51:15;95155.19;;;7.67;51.25
23176;BME280;19910;42.652;23.332;2023-03-19T05:53:42;95161.31;;;8.46;51.12
23176;BME280;19910;42.652;23.332;2023-03-19T05:56:08;95155.41;;;10.28;47.21
23176;BME280;19910;42.652;23.332;2023-03-19T05:58:36;95149.59;;;9.81;46.97
23176;BME280;19910;42.652;23.332;2023-03-19T06:01:03;95150.38;;;10.13;45.50
23176;BME280;19910;42.652;23.332;2023-03-19T06:03:29;95151.97;;;10.14;51.34
23176;BME280;19910;42.652;23.332;2023-03-19T06:05:56;95143.09;;;10.61;50.72
23176;BME280;19910;42.652;23.332;2023-03-19T06:08:25;95153.53;;;10.06;58.37
23176;BME280;19910;42.652;23.332;2023-03-19T06:10:52;95142.22;;;10.35;46.92
23176;BME280;19910;42.652;23.332;2023-03-19T06:13:19;95144.28;;;9.76;47.27
23176;BME280;19910;42.652;23.332;2023-03-19T06:15:46;95149.53;;;9.28;50.64
23176;BME280;19910;42.652;23.332;2023-03-19T06:18:13;95160.19;;;8.61;49.69
23176;BME280;19910;42.652;23.332;2023-03-19T06:20:40;95156.59;;;8.38;50.12
23176;BME280;19910;42.652;23.332;2023-03-19T06:23:07;95145.06;;;8.87;49.49
23176;BME280;19910;42.652;23.332;2023-03-19T06:25:35;95138.63;;;9.86;47.54
23176;BME280;19910;42.652;23.332;2023-03-19T06:28:02;95146.88;;;10.43;46.94
23176;BME280;19910;42.652;23.332;2023-03-19T06:30:29;95156.84;;;9.27;47.55
23176;BME280;19910;42.652;23.332;2023-03-19T06:32:56;95152.03;;;9.91;46.98
23176;BME280;19910;42.652;23.332;2023-03-19T06:35:23;95156.47;;;10.49;46.02
23176;BME280;19910;42.652;23.332;2023-03-19T06:37:49;95155.22;;;9.93;46.00
23176;BME280;19910;42.652;23.332;2023-03-19T06:40:17;95163.41;;;10.33;45.91
23176;BME280;19910;42.652;23.332;2023-03-19T06:42:46;95155.94;;;11.21;44.37
23176;BME280;19910;42.652;23.332;2023-03-19T06:45:13;95161.63;;;10.28;45.40
23176;BME280;19910;42.652;23.332;2023-03-19T06:47:40;95152.78;;;10.45;45.54
23176;BME280;19910;42.652;23.332;2023-03-19T06:50:08;95158.94;;;10.94;44.12
23176;BME280;19910;42.652;23.332;2023-03-19T06:52:35;95169.09;;;10.62;44.59
23176;BME280;19910;42.652;23.332;2023-03-19T06:55:02;95178.13;;;11.40;43.65
23176;BME280;19910;42.652;23.332;2023-03-19T06:57:29;95174.41;;;12.05;41.84
23176;BME280;19910;42.652;23.332;2023-03-19T06:59:57;95177.19;;;11.19;42.52
23176;BME280;19910;42.652;23.332;2023-03-19T07:02:24;95180.97;;;10.44;44.80
23176;BME280;19910;42.652;23.332;2023-03-19T07:04:52;95180.69;;;11.63;42.71
23176;BME280;19910;42.652;23.332;2023-03-19T07:07:18;95169.84;;;11.28;42.94
23176;BME280;19910;42.652;23.332;2023-03-19T07:09:45;95173.50;;;11.41;42.32
23176;BME280;19910;42.652;23.332;2023-03-19T07:12:12;95167.44;;;11.53;42.13
23176;BME280;19910;42.652;23.332;2023-03-19T07:14:39;95174.31;;;11.42;42.03
23176;BME280;19910;42.652;23.332;2023-03-19T07:17:07;95179.88;;;11.02;42.76
23176;BME280;19910;42.652;23.332;2023-03-19T07:19:34;95178.66;;;10.29;44.37
23176;BME280;19910;42.652;23.332;2023-03-19T07:22:01;95170.31;;;11.13;44.31
23176;BME280;19910;42.652;23.332;2023-03-19T07:24:28;95177.72;;;10.03;44.34
23176;BME280;19910;42.652;23.332;2023-03-19T07:26:54;95170.31;;;10.17;44.63
23176;BME280;19910;42.652;23.332;2023-03-19T07:29:22;95169.50;;;9.63;45.76
23176;BME280;19910;42.652;23.332;2023-03-19T07:31:49;95167.47;;;9.46;47.22
23176;BME280;19910;42.652;23.332;2023-03-19T07:34:17;95180.84;;;8.93;48.29
23176;BME280;19910;42.652;23.332;2023-03-19T07:36:44;95171.06;;;9.55;47.05
23176;BME280;19910;42.652;23.332;2023-03-19T07:39:11;95184.59;;;9.19;48.50
23176;BME280;19910;42.652;23.332;2023-03-19T07:41:38;95178.56;;;9.00;48.44
23176;BME280;19910;42.652;23.332;2023-03-19T07:44:05;95182.25;;;8.22;50.25
23176;BME280;19910;42.652;23.332;2023-03-19T07:46:31;95173.09;;;8.37;49.29
23176;BME280;19910;42.652;23.332;2023-03-19T07:48:58;95187.69;;;8.49;49.29
23176;BME280;19910;42.652;23.332;2023-03-19T07:51:26;95178.38;;;8.28;49.61
23176;BME280;19910;42.652;23.332;2023-03-19T07:53:53;95183.09;;;8.36;49.95
23176;BME280;19910;42.652;23.332;2023-03-19T07:56:20;95177.69;;;8.50;49.88
23176;BME280;19910;42.652;23.332;2023-03-19T07:58:46;95182.13;;;8.32;50.40
23176;BME280;19910;42.652;23.332;2023-03-19T08:01:13;95184.97;;;8.90;48.52
23176;BME280;19910;42.652;23.332;2023-03-19T08:03:40;95178.31;;;8.74;48.86
23176;BME280;19910;42.652;23.332;2023-03-19T08:06:07;95181.91;;;8.42;49.13
23176;BME280;19910;42.652;23.332;2023-03-19T08:08:35;95181.91;;;8.56;49.42
23176;BME280;19910;42.652;23.332;2023-03-19T08:11:02;95184.06;;;8.27;50.86
23176;BME280;19910;42.652;23.332;2023-03-19T08:13:29;95178.31;;;8.74;58.03
23176;BME280;19910;42.652;23.332;2023-03-19T08:15:56;95166.66;;;9.90;52.71
23176;BME280;19910;42.652;23.332;2023-03-19T08:18:23;95176.75;;;9.32;60.47
23176;BME280;19910;42.652;23.332;2023-03-19T08:20:49;95163.72;;;9.78;50.29
23176;BME280;19910;42.652;23.332;2023-03-19T08:23:17;95183.88;;;8.64;49.71
23176;BME280;19910;42.652;23.332;2023-03-19T08:25:45;95177.66;;;8.09;50.96
23176;BME280;19910;42.652;23.332;2023-03-19T08:28:12;95174.69;;;8.51;50.44
23176;BME280;19910;42.652;23.332;2023-03-19T08:30:39;95183.91;;;8.50;50.44
23176;BME280;19910;42.652;23.332;2023-03-19T08:33:05;95178.25;;;9.02;49.77
23176;BME280;19910;42.652;23.332;2023-03-19T08:35:33;95181.38;;;8.81;49.85
23176;BME280;19910;42.652;23.332;2023-03-19T08:38:00;95175.13;;;9.31;48.60
23176;BME280;19910;42.652;23.332;2023-03-19T08:40:27;95167.41;;;9.82;46.73
23176;BME280;19910;42.652;23.332;2023-03-19T08:42:55;95160.94;;;9.92;47.05
23176;BME280;19910;42.652;23.332;2023-03-19T08:45:22;95162.09;;;9.99;47.17
23176;BME280;19910;42.652;23.332;2023-03-19T08:47:49;95155.31;;;10.11;47.47
23176;BME280;19910;42.652;23.332;2023-03-19T08:50:16;95154.09;;;9.41;49.04
23176;BME280;19910;42.652;23.332;2023-03-19T08:52:43;95159.91;;;9.57;48.93
23176;BME280;19910;42.652;23.332;2023-03-19T08:55:11;95156.50;;;9.43;48.31
23176;BME280;19910;42.652;23.332;2023-03-19T08:57:38;95143.34;;;9.50;47.69
23176;BME280;19910;42.652;23.332;2023-03-19T09:00:07;95142.00;;;9.92;48.48
23176;BME280;19910;42.652;23.332;2023-03-19T09:02:34;95133.41;;;10.21;47.53
23176;BME280;19910;42.652;23.332;2023-03-19T09:05:01;95127.59;;;10.53;46.13
23176;BME280;19910;42.652;23.332;2023-03-19T09:07:27;95135.50;;;10.24;46.83
23176;BME280;19910;42.652;23.332;2023-03-19T09:09:54;95131.91;;;10.15;45.88
23176;BME280;19910;42.652;23.332;2023-03-19T09:12:21;95129.19;;;10.15;46.30
23176;BME280;19910;42.652;23.332;2023-03-19T09:14:48;95121.38;;;10.44;46.10
23176;BME280;19910;42.652;23.332;2023-03-19T09:17:17;95122.75;;;10.24;46.38
23176;BME280;19910;42.652;23.332;2023-03-19T09:19:44;95129.81;;;10.12;47.27
23176;BME280;19910;42.652;23.332;2023-03-19T09:22:11;95124.94;;;10.71;44.95
23176;BME280;19910;42.652;23.332;2023-03-19T09:24:38;95121.88;;;10.46;45.59
23176;BME280;19910;42.652;23.332;2023-03-19T09:27:05;95114.78;;;10.19;46.47
23176;BME280;19910;42.652;23.332;2023-03-19T09:29:32;95124.50;;;10.29;45.21
23176;BME280;19910;42.652;23.332;2023-03-19T09:31:58;95119.47;;;10.36;45.57
23176;BME280;19910;42.652;23.332;2023-03-19T09:34:27;95122.84;;;10.11;45.71
23176;BME280;19910;42.652;23.332;2023-03-19T09:36:54;95114.84;;;10.06;45.96
23176;BME280;19910;42.652;23.332;2023-03-19T09:39:21;95126.28;;;10.25;46.13
23176;BME280;19910;42.652;23.332;2023-03-19T09:42:03;95107.75;;;10.84;46.56
23176;BME280;19910;42.652;23.332;2023-03-19T09:44:36;95109.53;;;11.14;45.78
23176;BME280;19910;42.652;23.332;2023-03-19T09:47:17;95116.38;;;11.37;44.00
23176;BME280;19910;42.652;23.332;2023-03-19T09:49:51;95112.88;;;11.37;43.12
23176;BME280;19910;42.652;23.332;2023-03-19T09:52:26;95115.38;;;10.64;43.40
23176;BME280;19910;42.652;23.332;2023-03-19T09:54:58;95103.69;;;10.38;44.80
23176;BME280;19910;42.652;23.332;2023-03-19T09:57:26;95107.03;;;10.35;44.79
23176;BME280;19910;42.652;23.332;2023-03-19T09:59:54;95094.16;;;10.66;44.45
23176;BME280;19910;42.652;23.332;2023-03-19T10:02:31;95090.22;;;10.73;44.45
23176;BME280;19910;42.652;23.332;2023-03-19T10:05:11;95085.94;;;10.89;43.87
23176;BME280;19910;42.652;23.332;2023-03-19T10:10:49;95076.44;;;11.81;42.13
23176;BME280;19910;42.652;23.332;2023-03-19T10:13:28;95084.94;;;11.36;41.91
23176;BME280;19910;42.652;23.332;2023-03-19T10:16:03;95079.38;;;11.42;42.38
23176;BME280;19910;42.652;23.332;2023-03-19T10:18:31;95074.59;;;11.21;42.89
23176;BME280;19910;42.652;23.332;2023-03-19T10:21:10;95073.34;;;11.19;42.69
23176;BME280;19910;42.652;23.332;2023-03-19T10:23:42;95062.22;;;11.75;42.13
23176;BME280;19910;42.652;23.332;2023-03-19T10:26:13;95058.44;;;12.15;41.09
23176;BME280;19910;42.652;23.332;2023-03-19T10:28:43;95053.28;;;12.22;43.18
23176;BME280;19910;42.652;23.332;2023-03-19T10:31:27;95054.22;;;12.26;39.89
23176;BME280;19910;42.652;23.332;2023-03-19T10:34:13;95041.84;;;12.07;40.78
23176;BME280;19910;42.652;23.332;2023-03-19T10:36:46;95035.28;;;12.38;43.16
23176;BME280;19910;42.652;23.332;2023-03-19T10:39:15;95034.00;;;12.86;40.13
23176;BME280;19910;42.652;23.332;2023-03-19T10:41:49;95051.28;;;12.60;40.53
23176;BME280;19910;42.652;23.332;2023-03-19T10:44:27;95039.22;;;12.20;40.66
23176;BME280;19910;42.652;23.332;2023-03-19T10:46:56;95019.16;;;12.33;40.91
23176;BME280;19910;42.652;23.332;2023-03-19T10:49:23;95023.78;;;12.41;40.65
23176;BME280;19910;42.652;23.332;2023-03-19T10:51:55;95014.38;;;12.80;41.13
23176;BME280;19910;42.652;23.332;2023-03-19T10:54:23;95004.97;;;12.77;40.33
23176;BME280;19910;42.652;23.332;2023-03-19T10:56:54;95007.69;;;12.77;39.98
23176;BME280;19910;42.652;23.332;2023-03-19T10:59:24;95005.97;;;12.94;39.05
23176;BME280;19910;42.652;23.332;2023-03-19T11:01:56;94998.88;;;12.80;39.84
23176;BME280;19910;42.652;23.332;2023-03-19T11:04:25;94986.78;;;13.11;39.36
23176;BME280;19910;42.652;23.332;2023-03-19T11:06:55;94979.41;;;13.44;39.59
23176;BME280;19910;42.652;23.332;2023-03-19T11:09:32;94986.50;;;13.94;38.47
23176;BME280;19910;42.652;23.332;2023-03-19T11:12:06;94973.00;;;14.34;37.79
23176;BME280;19910;42.652;23.332;2023-03-19T11:14:37;94962.59;;;14.76;38.06
23176;BME280;19910;42.652;23.332;2023-03-19T11:17:16;94959.13;;;14.91;36.33
23176;BME280;19910;42.652;23.332;2023-03-19T11:19:49;94951.97;;;14.59;36.94
23176;BME280;19910;42.652;23.332;2023-03-19T11:22:20;94944.25;;;14.61;37.62
23176;BME280;19910;42.652;23.332;2023-03-19T11:24:50;94957.69;;;14.17;38.17
23176;BME280;19910;42.652;23.332;2023-03-19T11:27:17;94947.56;;;14.42;37.56
23176;BME280;19910;42.652;23.332;2023-03-19T11:29:44;94945.63;;;14.55;37.93
23176;BME280;19910;42.652;23.332;2023-03-19T11:32:29;94939.28;;;15.07;36.04
23176;BME280;19910;42.652;23.332;2023-03-19T11:35:02;94937.91;;;15.13;36.61
23176;BME280;19910;42.652;23.332;2023-03-19T11:37:47;94920.56;;;15.21;37.02
23176;BME280;19910;42.652;23.332;2023-03-19T11:40:20;94921.50;;;15.41;36.22
23176;BME280;19910;42.652;23.332;2023-03-19T11:45:49;94905.38;;;15.51;36.59
23176;BME280;19910;42.652;23.332;2023-03-19T11:48:33;94905.84;;;15.10;35.42
23176;BME280;19910;42.652;23.332;2023-03-19T11:51:08;94908.41;;;15.03;35.94
23176;BME280;19910;42.652;23.332;2023-03-19T11:53:44;94904.94;;;14.62;35.97
23176;BME280;19910;42.652;23.332;2023-03-19T11:56:22;94907.34;;;14.39;36.41
23176;BME280;19910;42.652;23.332;2023-03-19T11:59:08;94910.25;;;14.18;36.48
23176;BME280;19910;42.652;23.332;2023-03-19T12:01:53;94895.25;;;14.12;37.39
23176;BME280;19910;42.652;23.332;2023-03-19T12:04:47;94898.44;;;14.14;37.67
23176;BME280;19910;42.652;23.332;2023-03-19T12:07:24;94888.28;;;14.27;37.68
23176;BME280;19910;42.652;23.332;2023-03-19T12:10:05;94893.59;;;14.36;38.69
23176;BME280;19910;42.652;23.332;2023-03-19T12:12:48;94887.34;;;14.35;36.92
23176;BME280;19910;42.652;23.332;2023-03-19T12:15:24;94879.28;;;14.51;37.83
23176;BME280;19910;42.652;23.332;2023-03-19T12:17:59;94890.44;;;14.34;36.62
23176;BME280;19910;42.652;23.332;2023-03-19T12:20:41;94882.81;;;14.39;37.16
23176;BME280;19910;42.652;23.332;2023-03-19T12:23:21;94884.03;;;14.54;37.67
23176;BME280;19910;42.652;23.332;2023-03-19T12:26:01;94874.03;;;14.58;36.43
23176;BME280;19910;42.652;23.332;2023-03-19T12:28:32;94876.09;;;14.49;36.86
23176;BME280;19910;42.652;23.332;2023-03-19T12:31:12;94868.03;;;14.80;36.22
23176;BME280;19910;42.652;23.332;2023-03-19T12:33:47;94870.91;;;15.00;36.93
23176;BME280;19910;42.652;23.332;2023-03-19T12:36:22;94866.19;;;15.44;36.13
23176;BME280;19910;42.652;23.332;2023-03-19T12:38:52;94861.69;;;15.51;35.96
23176;BME280;19910;42.652;23.332;2023-03-19T12:41:24;94853.22;;;15.88;35.58
23176;BME280;19910;42.652;23.332;2023-03-19T12:43:55;94854.56;;;16.13;37.04
23176;BME280;19910;42.652;23.332;2023-03-19T12:46:27;94848.25;;;16.09;34.66
23176;BME280;19910;42.652;23.332;2023-03-19T12:48:59;94854.75;;;16.20;34.89
23176;BME280;19910;42.652;23.332;2023-03-19T12:51:32;94847.75;;;15.88;35.14
23176;BME280;19910;42.652;23.332;2023-03-19T12:54:03;94846.81;;;16.15;35.53
23176;BME280;19910;42.652;23.332;2023-03-19T12:56:36;94845.84;;;15.41;35.79
23176;BME280;19910;42.652;23.332;2023-03-19T12:59:12;94841.44;;;15.84;35.05
23176;BME280;19910;42.652;23.332;2023-03-19T13:01:45;94834.47;;;16.21;35.51
23176;BME280;19910;42.652;23.332;2023-03-19T13:04:15;94835.34;;;16.25;35.03
23176;BME280;19910;42.652;23.332;2023-03-19T13:06:50;94832.06;;;16.20;34.41
23176;BME280;19910;42.652;23.332;2023-03-19T13:09:27;94837.97;;;15.87;35.70
23176;BME280;19910;42.652;23.332;2023-03-19T13:12:00;94833.16;;;15.80;35.78